Time;durP1;ratioP1;P1;durP2;ratioP2;P2;SDS_P1;SDS_P2;PMS_P1;PMS_P2;Temp;Humidity;BMP_temperature;BMP_pressure;BME280_temperature;BME280_humidity;BME280_pressure;Samples;Min_cycle;Max_cycle;Signal;HPM_P1;HPM_P2
2021/04/07 00:01:47;;;;;;;20.20;4.67;;;;;;;-0.15;80.57;100153.53;5094289;28;20028;-64
2021/04/07 00:04:13;;;;;;;15.60;2.10;;;;;;;-0.12;80.36;100162.97;5093269;28;20610;-64
2021/04/07 00:06:39;;;;;;;9.18;2.53;;;;;;;-0.05;79.81;100165.06;5093273;28;20028;-64
2021/04/07 00:09:05;;;;;;;14.75;1.90;;;;;;;-0.01;79.43;100161.25;5093986;28;20032;-64
2021/04/07 00:11:31;;;;;;;13.48;1.98;;;;;;;-0.03;79.44;100159.69;5076207;28;20067;-64
2021/04/07 00:13:58;;;;;;;4.90;1.97;;;;;;;0.03;79.55;100159.25;5094279;28;20457;-64
2021/04/07 00:16:24;;;;;;;13.77;1.98;;;;;;;0.04;79.33;100170.59;5093061;28;20035;-64
2021/04/07 00:18:49;;;;;;;16.73;3.20;;;;;;;-0.01;79.78;100158.63;5092784;28;20664;-64
2021/04/07 00:21:14;;;;;;;14.83;2.00;;;;;;;-0.12;79.77;100157.72;5094064;28;20358;-64
2021/04/07 00:23:39;;;;;;;15.93;2.43;;;;;;;-0.07;79.70;100164.31;5094111;28;20449;-64
2021/04/07 00:26:05;;;;;;;14.50;2.80;;;;;;;-0.14;80.22;100151.72;5092892;28;20036;-64
2021/04/07 00:28:30;;;;;;;15.93;2.90;;;;;;;-0.22;80.82;100153.09;5092595;28;20047;-64
2021/04/07 00:30:57;;;;;;;18.57;2.30;;;;;;;-0.20;81.14;100150.38;5093799;28;20051;-64
2021/04/07 00:33:22;;;;;;;16.70;1.98;;;;;;;-0.20;81.26;100150.38;5075741;28;20632;-64
2021/04/07 00:35:48;;;;;;;7.83;2.33;;;;;;;-0.31;81.56;100153.75;5093743;28;20054;-64
2021/04/07 00:38:13;;;;;;;7.60;2.00;;;;;;;-0.34;82.30;100153.97;5093404;28;20039;-64
2021/04/07 00:40:38;;;;;;;8.73;2.30;;;;;;;-0.33;82.38;100157.44;5093599;28;20278;-64
2021/04/07 00:43:04;;;;;;;15.02;4.03;;;;;;;-0.30;82.15;100158.06;5092745;28;20040;-64
2021/04/07 00:45:30;;;;;;;10.05;1.60;;;;;;;-0.16;82.43;100158.91;5092478;28;20046;-64
2021/04/07 00:47:56;;;;;;;16.25;3.53;;;;;;;-0.23;82.32;100156.69;5091662;28;20056;-64
2021/04/07 00:50:24;;;;;;;9.48;1.73;;;;;;;-0.25;82.58;100163.81;5075710;28;20044;-64
2021/04/07 00:52:50;;;;;;;7.55;2.40;;;;;;;-0.33;82.64;100165.31;5092440;28;20079;-64
2021/04/07 00:55:24;;;;;;;11.50;1.52;;;;;;;-0.27;82.75;100165.72;5092365;28;20086;-64
2021/04/07 00:57:50;;;;;;;16.58;1.73;;;;;;;-0.24;82.44;100162.03;5092187;28;20398;-64
2021/04/07 01:00:17;;;;;;;13.45;1.80;;;;;;;-0.18;81.97;100166.03;5092179;28;20036;-64
2021/04/07 01:02:44;;;;;;;17.05;3.30;;;;;;;-0.20;82.10;100162.66;5075636;28;20081;-64
2021/04/07 01:05:11;;;;;;;13.65;2.10;;;;;;;-0.18;82.37;100161.63;5075349;28;20035;-64
2021/04/07 01:07:37;;;;;;;9.20;1.48;;;;;;;-0.24;82.77;100167.28;5075014;28;20126;-64
2021/04/07 01:10:08;;;;;;;15.05;1.98;;;;;;;-0.24;83.11;100183.03;5093085;28;20139;-64
2021/04/07 01:12:33;;;;;;;11.48;1.52;;;;;;;-0.14;83.44;100167.47;5091890;28;20075;-64
2021/04/07 01:14:59;;;;;;;8.75;2.63;;;;;;;-0.15;83.63;100179.75;5092906;28;20181;-64
2021/04/07 01:17:25;;;;;;;9.40;1.92;;;;;;;-0.19;84.16;100180.09;5091769;28;20067;-64
2021/04/07 01:19:51;;;;;;;14.13;2.83;;;;;;;-0.19;84.25;100187.94;5091967;28;20471;-64
2021/04/07 01:22:19;;;;;;;10.13;1.65;;;;;;;-0.22;84.49;100189.84;5092803;28;20032;-64
2021/04/07 01:24:45;;;;;;;20.90;2.67;;;;;;;-0.27;84.59;100193.75;5091933;28;20035;-64
2021/04/07 01:27:10;;;;;;;8.70;2.40;;;;;;;-0.28;84.69;100202.53;5091586;28;20032;-64
2021/04/07 01:29:36;;;;;;;8.00;1.47;;;;;;;-0.34;85.07;100195.13;5092470;28;20093;-64
2021/04/07 01:32:01;;;;;;;7.33;1.73;;;;;;;-0.30;85.27;100201.84;5092616;28;20411;-64
2021/04/07 01:34:29;;;;;;;16.23;1.97;;;;;;;-0.25;85.25;100207.59;5091654;28;20039;-64
2021/04/07 01:36:56;;;;;;;15.43;2.78;;;;;;;-0.19;85.54;100198.44;5091630;28;20335;-64
2021/04/07 01:39:23;;;;;;;11.23;3.35;;;;;;;-0.08;85.21;100199.38;5091387;28;20032;-64
2021/04/07 01:41:49;;;;;;;21.10;2.50;;;;;;;-0.11;85.03;100191.72;5092284;28;20101;-64
2021/04/07 01:44:17;;;;;;;26.25;3.15;;;;;;;-0.06;85.15;100197.47;5092426;28;20048;-64
2021/04/07 01:46:44;;;;;;;16.05;3.30;;;;;;;-0.03;85.07;100192.00;5092209;28;20035;-64
2021/04/07 01:49:11;;;;;;;13.18;3.38;;;;;;;-0.03;84.89;100191.19;5091048;28;20082;-64
2021/04/07 01:51:37;;;;;;;24.92;3.40;;;;;;;-0.06;84.70;100194.84;5091301;28;20077;-64
2021/04/07 01:54:11;;;;;;;18.58;2.42;;;;;;;-0.07;84.78;100177.44;5091336;28;20054;-64
2021/04/07 01:56:53;;;;;;;25.15;2.72;;;;;;;0.01;84.01;100191.81;5091922;28;20058;-64
2021/04/07 01:59:23;;;;;;;14.38;2.47;;;;;;;0.02;83.41;100198.72;5090055;28;20460;-64
2021/04/07 02:01:51;;;;;;;9.68;2.28;;;;;;;0.04;83.06;100196.84;5074188;28;20032;-64
2021/04/07 02:04:17;;;;;;;9.43;1.95;;;;;;;0.01;82.61;100189.19;5092110;28;20536;-64
2021/04/07 02:06:43;;;;;;;9.57;2.47;;;;;;;0.09;82.62;100194.72;5092018;28;20024;-64
2021/04/07 02:09:09;;;;;;;12.65;2.42;;;;;;;0.09;82.45;100189.47;5090723;28;20664;-64
2021/04/07 02:11:56;;;;;;;12.80;2.72;;;;;;;0.08;82.53;100187.81;5090924;28;20044;-64
2021/04/07 02:14:24;;;;;;;14.73;2.70;;;;;;;0.13;82.37;100194.41;5091959;28;20046;-64
2021/04/07 02:17:04;;;;;;;8.07;2.15;;;;;;;0.10;82.59;100204.28;5073931;28;20453;-64
2021/04/07 02:19:31;;;;;;;13.25;2.95;;;;;;;0.10;82.19;100201.66;5091356;28;20028;-64
2021/04/07 02:22:11;;;;;;;14.10;2.58;;;;;;;0.15;82.11;100200.38;5091749;28;20047;-64
2021/04/07 02:24:38;;;;;;;10.40;1.55;;;;;;;0.12;81.89;100197.16;5091649;28;20073;-64
2021/04/07 02:27:17;;;;;;;4.93;1.33;;;;;;;0.08;81.85;100188.63;5091663;28;20039;-64
2021/04/07 02:29:46;;;;;;;7.43;1.63;;;;;;;0.09;82.02;100199.97;5091221;28;20073;-64
2021/04/07 02:32:11;;;;;;;3.80;1.35;;;;;;;0.12;82.21;100197.16;5091479;28;20366;-64
2021/04/07 02:34:38;;;;;;;6.23;1.07;;;;;;;0.12;82.49;100210.28;5091515;28;20047;-64
2021/04/07 02:37:04;;;;;;;4.45;1.52;;;;;;;0.10;82.85;100218.25;5090560;28;20071;-64
2021/04/07 02:39:30;;;;;;;17.42;1.40;;;;;;;0.11;82.88;100221.69;5091290;28;20111;-64
2021/04/07 02:41:55;;;;;;;7.68;1.48;;;;;;;0.13;82.92;100214.56;5091522;28;20445;-64
2021/04/07 02:44:21;;;;;;;10.40;2.17;;;;;;;0.11;82.91;100219.06;5091372;28;20445;-64
2021/04/07 02:46:46;;;;;;;17.88;2.25;;;;;;;0.09;83.21;100221.81;5073476;28;20039;-64
2021/04/07 02:49:12;;;;;;;8.77;1.98;;;;;;;0.08;83.51;100219.31;5091185;28;20024;-64
2021/04/07 02:51:37;;;;;;;15.10;1.80;;;;;;;0.08;84.15;100225.38;5090403;28;20050;-64
2021/04/07 02:54:03;;;;;;;8.33;1.03;;;;;;;0.10;83.85;100225.28;5091378;28;20510;-64
2021/04/07 02:56:32;;;;;;;6.70;1.85;;;;;;;0.10;84.28;100223.50;5073444;28;20032;-64
2021/04/07 02:58:58;;;;;;;9.63;3.20;;;;;;;0.07;84.26;100235.97;5090836;28;20046;-64
2021/04/07 03:01:23;;;;;;;9.70;2.30;;;;;;;0.09;84.38;100236.72;5090302;28;20051;-64
2021/04/07 03:03:49;;;;;;;9.80;1.27;;;;;;;0.14;84.65;100235.47;5073422;28;20066;-64
2021/04/07 03:06:14;;;;;;;14.23;1.40;;;;;;;0.22;84.24;100219.16;5090355;28;20071;-64
2021/04/07 03:08:40;;;;;;;4.32;1.73;;;;;;;0.17;84.43;100216.88;5090928;28;20051;-64
2021/04/07 03:11:05;;;;;;;7.90;1.43;;;;;;;0.18;84.42;100220.31;5093572;28;20028;-64
2021/04/07 03:13:32;;;;;;;5.60;1.58;;;;;;;0.13;84.40;100223.28;5094170;28;20028;-64
2021/04/07 03:15:57;;;;;;;9.98;1.98;;;;;;;0.14;84.97;100224.09;5095284;28;20038;-64
2021/04/07 03:18:23;;;;;;;7.15;1.70;;;;;;;0.14;84.69;100222.34;5095045;28;20365;-65
2021/04/07 03:20:48;;;;;;;5.97;1.67;;;;;;;0.10;84.88;100238.41;5095298;28;20036;-64
2021/04/07 03:23:13;;;;;;;9.03;2.33;;;;;;;-0.01;85.00;100234.75;5094207;28;20242;-64
2021/04/07 03:25:39;;;;;;;16.10;2.97;;;;;;;-0.04;84.94;100227.09;5094149;28;20058;-64
2021/04/07 03:28:04;;;;;;;11.93;2.53;;;;;;;-0.05;85.12;100230.66;5094673;28;20040;-64
2021/04/07 03:30:48;;;;;;;10.33;3.13;;;;;;;-0.05;84.97;100235.06;5077176;28;20043;-64
2021/04/07 03:33:15;;;;;;;12.10;3.00;;;;;;;-0.09;84.65;100223.94;5093965;28;20036;-64
2021/04/07 03:35:41;;;;;;;16.50;3.78;;;;;;;-0.09;85.01;100223.94;5077016;28;20028;-64
2021/04/07 03:38:06;;;;;;;19.27;3.83;;;;;;;-0.13;85.15;100232.13;5093630;28;20024;-64
2021/04/07 03:40:31;;;;;;;19.70;4.00;;;;;;;-0.10;85.04;100229.28;5093754;28;20047;-64
2021/04/07 03:42:57;;;;;;;10.33;3.47;;;;;;;-0.09;85.05;100225.75;5093722;28;20036;-64
2021/04/07 03:45:22;;;;;;;9.43;1.93;;;;;;;-0.13;84.96;100238.22;5094633;28;20122;-64
2021/04/07 03:47:47;;;;;;;18.43;2.53;;;;;;;-0.10;85.11;100234.53;5094434;28;20031;-64
2021/04/07 03:50:13;;;;;;;14.07;2.30;;;;;;;-0.19;85.01;100238.63;5094779;28;20446;-65
2021/04/07 03:52:38;;;;;;;10.95;2.25;;;;;;;-0.26;85.21;100232.13;5094552;28;20035;-64
2021/04/07 03:55:04;;;;;;;20.80;3.13;;;;;;;-0.26;85.11;100242.63;5093730;28;20047;-65
2021/04/07 03:57:29;;;;;;;25.50;3.63;;;;;;;-0.19;85.38;100238.63;5093131;28;20081;-64
2021/04/07 03:59:54;;;;;;;11.47;2.30;;;;;;;-0.22;85.57;100237.06;5094474;28;20028;-64
2021/04/07 04:02:20;;;;;;;22.20;3.17;;;;;;;-0.10;85.55;100237.16;5093509;28;20345;-64
2021/04/07 04:04:45;;;;;;;33.50;4.00;;;;;;;-0.04;85.22;100242.00;5093489;28;20039;-64
2021/04/07 04:07:10;;;;;;;17.60;4.40;;;;;;;0.08;84.16;100241.13;5093503;28;20274;-64
2021/04/07 04:09:36;;;;;;;18.83;2.87;;;;;;;0.13;84.09;100252.16;5076184;28;20111;-64
2021/04/07 04:12:01;;;;;;;26.57;3.30;;;;;;;0.14;84.08;100255.59;5059369;28;20040;-64
2021/04/07 04:14:26;;;;;;;10.67;3.23;;;;;;;0.15;84.24;100254.69;5093148;28;20035;-64
2021/04/07 04:16:52;;;;;;;17.30;3.40;;;;;;;0.16;84.23;100248.47;5094199;28;20290;-64
2021/04/07 04:19:17;;;;;;;11.10;2.50;;;;;;;0.14;84.61;100252.97;5092810;28;20513;-64
2021/04/07 04:21:42;;;;;;;18.30;2.53;;;;;;;0.07;84.91;100238.59;5092181;28;20032;-64
2021/04/07 04:24:08;;;;;;;15.87;2.83;;;;;;;0.12;84.86;100249.66;5094058;28;20093;-64
2021/04/07 04:26:33;;;;;;;15.18;3.08;;;;;;;0.14;84.74;100251.22;5092822;28;20449;-64
2021/04/07 04:28:59;;;;;;;28.83;4.77;;;;;;;0.14;84.91;100251.22;5092673;28;20032;-64
2021/04/07 04:31:24;;;;;;;22.20;3.50;;;;;;;0.13;84.84;100253.94;5092998;28;20452;-64
2021/04/07 04:33:49;;;;;;;26.23;3.27;;;;;;;0.14;84.25;100251.22;5093795;28;20024;-64
2021/04/07 04:36:15;;;;;;;19.73;3.87;;;;;;;0.16;84.58;100253.72;5093811;28;20050;-64
2021/04/07 04:38:40;;;;;;;31.17;5.23;;;;;;;0.09;84.56;100257.72;5092566;28;20032;-64
2021/04/07 04:41:05;;;;;;;24.70;3.40;;;;;;;0.07;84.90;100251.72;5092704;28;20032;-64
2021/04/07 04:43:31;;;;;;;15.53;3.83;;;;;;;0.02;85.10;100245.97;5092674;28;20028;-64
2021/04/07 04:45:56;;;;;;;27.20;4.50;;;;;;;-0.04;85.16;100249.88;5093497;28;20282;-64
2021/04/07 04:48:22;;;;;;;29.53;2.97;;;;;;;-0.04;85.54;100247.25;5092475;28;20895;-64
2021/04/07 04:50:47;;;;;;;22.93;4.03;;;;;;;-0.06;85.95;100247.34;5092693;28;20492;-65
2021/04/07 04:53:13;;;;;;;17.83;4.50;;;;;;;-0.11;85.76;100241.59;5092560;28;20481;-65
2021/04/07 04:55:38;;;;;;;22.87;4.37;;;;;;;-0.09;85.81;100249.34;5093393;28;20055;-64
2021/04/07 04:58:03;;;;;;;24.13;3.10;;;;;;;-0.10;86.01;100251.13;5092183;28;20361;-64
2021/04/07 05:00:29;;;;;;;14.88;3.75;;;;;;;-0.07;86.12;100250.94;5075593;28;20438;-64
2021/04/07 05:02:54;;;;;;;15.50;3.20;;;;;;;-0.10;85.60;100251.13;5092479;28;20052;-64
2021/04/07 05:05:20;;;;;;;15.13;3.47;;;;;;;-0.10;85.16;100256.38;5092347;28;20365;-64
2021/04/07 05:07:45;;;;;;;24.30;3.23;;;;;;;-0.03;85.25;100262.88;5092095;28;20043;-64
2021/04/07 05:10:11;;;;;;;18.27;4.93;;;;;;;-0.07;84.87;100269.31;5075359;28;20457;-64
2021/04/07 05:12:36;;;;;;;24.98;5.10;;;;;;;-0.01;85.08;100263.59;5092162;28;20044;-65
2021/04/07 05:15:02;;;;;;;22.27;4.43;;;;;;;-0.01;84.76;100260.16;5093155;28;20040;-64
2021/04/07 05:17:28;;;;;;;20.27;3.55;;;;;;;-0.06;84.75;100257.84;5092956;28;20278;-64
2021/04/07 05:19:55;;;;;;;12.80;3.15;;;;;;;0.00;84.30;100269.72;5092968;28;20162;-64
2021/04/07 05:22:20;;;;;;;15.35;3.22;;;;;;;0.01;84.29;100273.19;5092062;28;20036;-64
2021/04/07 05:24:46;;;;;;;19.40;4.93;;;;;;;0.05;84.20;100269.38;5092844;28;20365;-64
2021/04/07 05:27:11;;;;;;;23.95;3.80;;;;;;;0.07;84.24;100276.22;5092820;28;20028;-64
2021/04/07 05:29:37;;;;;;;12.43;4.03;;;;;;;0.09;84.25;100278.72;5092584;28;20032;-64
2021/04/07 05:32:02;;;;;;;16.13;3.77;;;;;;;0.10;84.12;100283.88;5091881;28;20044;-64
2021/04/07 05:34:28;;;;;;;30.17;4.93;;;;;;;0.18;84.08;100288.59;5091547;28;20558;-64
2021/04/07 05:36:54;;;;;;;25.42;5.00;;;;;;;0.27;83.71;100282.69;5092706;28;20046;-64
2021/04/07 05:39:20;;;;;;;21.38;4.07;;;;;;;0.24;83.50;100296.03;5092194;28;20028;-64
2021/04/07 05:41:45;;;;;;;11.90;4.87;;;;;;;0.25;84.04;100295.09;5092506;28;20036;-64
2021/04/07 05:44:10;;;;;;;15.93;2.97;;;;;;;0.31;83.36;100293.84;5091611;28;20019;-64
2021/04/07 05:46:36;;;;;;;17.53;2.70;;;;;;;0.38;82.92;100303.78;5074663;28;20036;-64
2021/04/07 05:49:01;;;;;;;11.83;2.90;;;;;;;0.52;82.37;100291.47;5092323;28;20124;-64
2021/04/07 05:51:27;;;;;;;14.27;3.50;;;;;;;0.53;82.63;100298.41;5092450;28;20027;-64
2021/04/07 05:53:52;;;;;;;16.30;4.13;;;;;;;0.54;82.74;100305.31;5091326;28;20814;-64
2021/04/07 05:56:17;;;;;;;19.53;4.17;;;;;;;0.68;82.80;100297.31;5092164;28;20124;-64
2021/04/07 05:58:43;;;;;;;12.13;4.10;;;;;;;0.78;83.07;100302.75;5091090;28;20288;-64
2021/04/07 06:01:08;;;;;;;15.00;3.93;;;;;;;0.84;82.69;100311.03;5091202;28;20047;-65
2021/04/07 06:03:33;;;;;;;25.13;4.43;;;;;;;1.07;83.14;100307.66;5091266;28;20027;-63
2021/04/07 06:05:59;;;;;;;15.53;4.47;;;;;;;1.24;81.20;100313.38;5092091;28;20446;-63
2021/04/07 06:08:24;;;;;;;16.67;4.23;;;;;;;1.11;81.52;100309.13;5090801;28;20453;-63
2021/04/07 06:10:49;;;;;;;24.87;5.03;;;;;;;1.30;81.72;100313.88;5091875;28;20141;-64
2021/04/07 06:13:18;;;;;;;12.50;3.87;;;;;;;1.33;81.33;100308.38;5091015;28;20040;-63
2021/04/07 06:15:44;;;;;;;13.32;3.50;;;;;;;1.07;81.27;100308.50;5090317;28;20036;-64
2021/04/07 06:18:12;;;;;;;;;;;;;;;1.02;81.92;100319.34;5091367;28;20066;-64
2021/04/07 06:20:45;;;;;;;11.40;4.43;;;;;;;0.86;81.91;100315.31;5091041;28;20246;-63
2021/04/07 06:23:11;;;;;;;13.95;4.35;;;;;;;0.80;82.71;100313.97;5090932;28;20032;-63
2021/04/07 06:25:38;;;;;;;11.88;3.65;;;;;;;0.91;83.04;100323.72;5074148;28;20065;-64
2021/04/07 06:28:06;;;;;;;13.52;3.83;;;;;;;0.79;82.28;100314.91;5073658;28;20031;-64
2021/04/07 06:30:42;;;;;;;15.23;4.47;;;;;;;1.35;82.89;100322.25;5091773;28;20061;-63
2021/04/07 06:33:23;;;;;;;15.00;4.07;;;;;;;2.09;78.18;100328.91;5090629;28;20036;-64
2021/04/07 06:35:57;;;;;;;11.98;3.53;;;;;;;2.99;73.37;100325.34;5090668;28;20069;-64
2021/04/07 06:38:23;;;;;;;12.07;4.55;;;;;;;3.50;72.68;100329.13;5090229;28;20046;-64
2021/04/07 06:40:50;;;;;;;11.13;3.55;;;;;;;3.37;72.91;100324.88;5091498;28;20028;-64
2021/04/07 06:43:16;;;;;;;;;;;;;;;3.40;72.50;100334.34;5091056;28;20032;-64
2021/04/07 06:45:41;;;;;;;8.10;3.05;;;;;;;3.26;72.73;100338.13;5090986;28;19912;-64
2021/04/07 06:48:11;;;;;;;9.47;3.40;;;;;;;2.91;73.12;100339.16;5090118;28;20036;-64
2021/04/07 06:50:38;;;;;;;24.02;4.78;;;;;;;2.35;75.06;100348.94;5090593;28;20036;-64
2021/04/07 06:53:06;;;;;;;11.85;3.45;;;;;;;2.13;76.39;100342.69;5090464;28;20028;-64
2021/04/07 06:55:32;;;;;;;14.52;4.95;;;;;;;1.79;78.56;100339.16;5090371;28;20464;-64
2021/04/07 06:57:57;;;;;;;9.50;4.80;;;;;;;1.84;78.47;100340.47;5090260;28;20039;-64
2021/04/07 07:00:26;;;;;;;17.30;4.27;;;;;;;1.47;79.53;100342.38;5091417;28;20105;-63
2021/04/07 07:03:06;;;;;;;18.58;4.85;;;;;;;1.71;79.91;100350.25;5073550;28;20369;-64
2021/04/07 07:05:33;;;;;;;17.55;5.13;;;;;;;1.62;80.65;100348.31;5091281;28;20028;-64
2021/04/07 07:08:01;;;;;;;14.30;5.03;;;;;;;1.42;81.00;100341.88;5090069;28;20023;-63
2021/04/07 07:10:35;;;;;;;12.32;3.58;;;;;;;1.27;81.50;100335.97;5090328;28;20051;-63
2021/04/07 07:13:01;;;;;;;13.40;4.20;;;;;;;1.34;82.23;100341.63;5090145;28;20377;-63
2021/04/07 07:15:26;;;;;;;13.25;3.88;;;;;;;1.46;81.59;100324.94;5090561;28;20036;-63
2021/04/07 07:17:51;;;;;;;14.30;4.90;;;;;;;1.43;81.85;100335.69;5089950;28;20128;-64
2021/04/07 07:20:29;;;;;;;16.03;4.87;;;;;;;1.69;81.61;100334.56;5073131;28;20146;-63
2021/04/07 07:22:54;;;;;;;10.02;3.67;;;;;;;2.19;80.54;100333.47;5073213;28;20231;-63
2021/04/07 07:25:20;;;;;;;11.83;3.60;;;;;;;2.09;79.45;100342.06;5091102;28;20028;-63
2021/04/07 07:27:45;;;;;;;6.88;2.20;;;;;;;2.02;79.85;100338.22;5090639;28;20442;-64
2021/04/07 07:30:13;;;;;;;9.30;3.97;;;;;;;2.13;80.21;100328.66;5072884;28;20032;-64
2021/04/07 07:32:42;;;;;;;11.95;4.55;;;;;;;2.11;79.53;100326.16;5089154;28;20047;-63
2021/04/07 07:35:13;;;;;;;7.82;2.88;;;;;;;1.92;79.69;100337.28;5090243;28;20032;-63
2021/04/07 07:37:40;;;;;;;4.82;2.88;;;;;;;1.86;80.89;100343.00;5090381;28;20450;-63
2021/04/07 07:40:16;;;;;;;7.32;3.22;;;;;;;1.60;80.62;100337.06;5089222;28;20028;-64
2021/04/07 07:42:42;;;;;;;;;;;;;;;1.72;82.05;100345.81;5089654;28;20081;-64
2021/04/07 07:45:08;;;;;;;7.18;3.05;;;;;;;1.58;81.29;100339.78;5088127;28;20008;-64
2021/04/07 07:47:38;;;;;;;12.52;3.13;;;;;;;2.04;80.66;100346.03;5087944;28;20377;-64
2021/04/07 07:50:06;;;;;;;7.25;2.67;;;;;;;2.54;79.46;100347.34;5088247;28;20461;-63
2021/04/07 07:52:37;;;;;;;9.07;2.75;;;;;;;2.04;79.04;100354.75;5088409;28;20031;-63
2021/04/07 07:55:18;;;;;;;13.07;3.25;;;;;;;2.34;79.33;100350.69;5089776;28;20089;-64
2021/04/07 07:57:55;;;;;;;8.65;3.42;;;;;;;2.61;77.74;100349.50;5092127;28;20043;-64
2021/04/07 08:00:23;;;;;;;8.27;2.55;;;;;;;2.53;78.31;100355.41;5093638;28;20046;-64
2021/04/07 08:02:49;;;;;;;3.83;1.80;;;;;;;2.52;77.46;100353.69;5093545;28;20114;-64
2021/04/07 08:05:19;;;;;;;10.10;3.45;;;;;;;3.08;76.10;100347.50;5093478;28;20078;-64
2021/04/07 08:07:45;;;;;;;5.22;2.63;;;;;;;3.08;76.25;100355.44;5076266;28;20473;-64
2021/04/07 08:10:13;;;;;;;4.38;2.15;;;;;;;3.54;76.16;100343.75;5093560;28;20449;-64
2021/04/07 08:12:41;;;;;;;4.70;2.67;;;;;;;3.59;74.04;100350.31;5076444;28;20055;-64
2021/04/07 08:15:08;;;;;;;5.18;2.53;;;;;;;3.04;77.23;100348.72;5094388;28;20114;-64
2021/04/07 08:17:34;;;;;;;4.53;2.08;;;;;;;2.94;77.01;100354.72;5093003;28;20050;-64
2021/04/07 08:20:01;;;;;;;3.95;2.03;;;;;;;3.18;77.83;100359.00;5093212;28;20078;-64
2021/04/07 08:22:28;;;;;;;6.32;2.47;;;;;;;3.19;77.24;100365.97;5094205;28;20094;-63
2021/04/07 08:24:55;;;;;;;3.05;2.00;;;;;;;3.58;75.38;100355.72;5094092;28;20468;-64
2021/04/07 08:27:21;;;;;;;5.00;2.33;;;;;;;3.76;73.33;100354.19;5094006;28;20126;-64
2021/04/07 08:29:47;;;;;;;4.60;1.70;;;;;;;4.25;74.14;100349.22;5093897;28;20070;-64
2021/04/07 08:32:17;;;;;;;5.93;2.05;;;;;;;3.64;73.57;100354.41;5093908;28;20064;-64
2021/04/07 08:34:44;;;;;;;6.80;2.85;;;;;;;3.59;74.85;100352.97;5093338;28;20036;-64
2021/04/07 08:37:12;;;;;;;7.00;2.17;;;;;;;3.22;75.31;100365.69;5093813;28;20028;-64
2021/04/07 08:39:44;;;;;;;6.07;2.65;;;;;;;3.09;75.98;100357.09;5092758;28;20544;-64
2021/04/07 08:42:13;;;;;;;7.60;2.50;;;;;;;2.74;76.59;100360.78;5092322;28;20369;-64
2021/04/07 08:44:44;;;;;;;5.72;2.58;;;;;;;3.12;77.25;100362.13;5076033;28;20067;-64
2021/04/07 08:47:25;;;;;;;5.40;2.20;;;;;;;2.62;77.31;100359.09;5093486;28;20104;-64
2021/04/07 08:50:07;;;;;;;7.20;3.33;;;;;;;2.29;79.29;100360.75;5092544;28;20044;-63
2021/04/07 08:52:45;;;;;;;4.80;2.95;;;;;;;2.50;79.43;100352.97;5093507;28;20173;-64
2021/04/07 08:55:19;;;;;;;5.15;3.00;;;;;;;2.61;78.71;100365.34;5092633;28;20123;-63
2021/04/07 08:58:00;;;;;;;6.68;3.60;;;;;;;2.73;78.57;100373.09;5092059;28;20067;-64
2021/04/07 09:00:33;;;;;;;9.25;3.50;;;;;;;2.64;78.41;100367.72;5092478;28;20078;-64
2021/04/07 09:03:14;;;;;;;8.02;3.72;;;;;;;2.91;77.86;100376.09;5092374;28;20046;-64
2021/04/07 09:05:45;;;;;;;5.70;2.47;;;;;;;2.72;76.82;100373.22;5092933;28;20043;-63
2021/04/07 09:08:16;;;;;;;5.90;2.67;;;;;;;2.87;77.42;100376.44;5092479;28;20509;-64
2021/04/07 09:10:50;;;;;;;5.43;2.45;;;;;;;2.60;78.18;100368.91;5092150;28;20127;-64
2021/04/07 09:13:22;;;;;;;6.50;2.40;;;;;;;2.84;78.11;100374.91;5093040;28;20483;-64
2021/04/07 09:15:53;;;;;;;6.35;2.88;;;;;;;2.58;78.08;100370.84;5093204;28;20046;-64
2021/04/07 09:18:33;;;;;;;12.63;3.85;;;;;;;2.79;78.38;100369.16;5091649;28;20147;-64
2021/04/07 09:21:00;;;;;;;5.90;2.35;;;;;;;2.87;77.85;100369.38;5092919;28;20036;-64
2021/04/07 09:23:35;;;;;;;7.30;2.80;;;;;;;2.85;78.43;100367.81;5091952;28;20427;-64
2021/04/07 09:26:10;;;;;;;9.10;3.55;;;;;;;2.84;77.96;100366.97;5092943;28;20372;-64
2021/04/07 09:28:43;;;;;;;5.45;2.92;;;;;;;3.08;78.21;100365.97;5092443;28;20039;-64
2021/04/07 09:31:12;;;;;;;7.07;2.97;;;;;;;3.46;78.44;100370.78;5092792;28;20043;-64
2021/04/07 09:33:39;;;;;;;6.80;3.38;;;;;;;3.68;75.45;100361.09;5092669;28;20043;-64
2021/04/07 09:36:06;;;;;;;5.00;2.85;;;;;;;3.47;75.91;100358.44;5092699;28;20039;-64
2021/04/07 09:38:31;;;;;;;;;;;;;;;3.60;76.36;100359.06;5091890;28;20417;-64
2021/04/07 09:41:08;;;;;;;6.22;3.20;;;;;;;3.76;74.73;100350.72;5092506;28;20018;-64
2021/04/07 09:43:35;;;;;;;5.65;3.10;;;;;;;3.71;75.05;100345.81;5091646;28;20036;-63
2021/04/07 09:46:01;;;;;;;8.70;3.05;;;;;;;3.70;74.26;100349.44;5092436;28;20123;-64
2021/04/07 09:48:37;;;;;;;8.05;3.17;;;;;;;3.49;76.23;100357.34;5091188;28;20036;-64
2021/04/07 09:51:31;;;;;;;9.90;3.25;;;;;;;3.21;77.05;100357.91;5092046;28;20298;-64
2021/04/07 09:54:12;;;;;;;8.00;3.30;;;;;;;3.68;76.18;100351.38;5089600;28;20172;-64
2021/04/07 09:57:00;;;;;;;6.07;3.22;;;;;;;3.57;76.07;100349.59;5072755;28;20777;-63
2021/04/07 09:59:55;;;;;;;8.05;4.00;;;;;;;3.82;74.55;100342.31;5089403;28;20065;-64
2021/04/07 10:02:29;;;;;;;6.20;3.00;;;;;;;3.91;74.05;100345.94;5080923;28;20465;-64
2021/04/07 10:04:56;;;;;;;5.22;2.90;;;;;;;3.91;74.92;100351.22;5090479;28;20061;-64
2021/04/07 10:07:30;;;;;;;7.32;3.55;;;;;;;4.18;73.73;100354.19;5072926;28;20518;-64
2021/04/07 10:09:57;;;;;;;4.03;2.33;;;;;;;4.45;73.54;100344.88;5092129;28;20046;-64
2021/04/07 10:12:24;;;;;;;5.32;2.55;;;;;;;4.26;74.09;100347.41;5091690;28;20040;-64
2021/04/07 10:14:50;;;;;;;4.97;2.40;;;;;;;4.54;72.94;100346.72;5091111;28;20139;-64
2021/04/07 10:17:27;;;;;;;6.05;3.22;;;;;;;4.01;73.96;100336.31;5074086;28;20040;-64
2021/04/07 10:19:53;;;;;;;5.13;2.55;;;;;;;3.97;74.93;100340.16;5089920;28;20094;-64
2021/04/07 10:22:29;;;;;;;4.72;2.97;;;;;;;3.56;76.35;100333.91;5090970;28;20035;-64
2021/04/07 10:25:12;;;;;;;3.08;2.17;;;;;;;3.78;76.91;100341.72;5090814;28;20105;-64
2021/04/07 10:27:38;;;;;;;4.93;2.75;;;;;;;3.91;75.76;100336.25;5091449;28;20040;-64
2021/04/07 10:30:05;;;;;;;;;;;;;;;4.22;75.05;100338.91;5091264;28;20035;-64
2021/04/07 10:32:38;;;;;;;6.78;2.60;;;;;;;4.29;75.68;100339.22;5090763;28;20330;-64
2021/04/07 10:35:04;;;;;;;4.15;2.58;;;;;;;4.73;74.37;100340.66;5090796;28;20047;-64
2021/04/07 10:37:29;;;;;;;5.03;1.80;;;;;;;5.25;72.46;100333.38;5073429;28;20040;-64
2021/04/07 10:39:54;;;;;;;6.17;2.37;;;;;;;5.52;71.98;100328.34;5091683;28;20036;-64
2021/04/07 10:42:20;;;;;;;4.73;1.80;;;;;;;5.91;69.38;100331.81;5091464;28;20346;-64
2021/04/07 10:45:01;;;;;;;3.42;1.33;;;;;;;6.52;68.35;100335.84;5090636;28;20032;-64
2021/04/07 10:47:33;;;;;;;4.07;2.00;;;;;;;7.02;67.18;100322.13;5073481;28;20043;-64
2021/04/07 10:49:58;;;;;;;5.82;1.70;;;;;;;6.80;65.69;100330.53;5091340;28;20117;-64
2021/04/07 10:52:36;;;;;;;2.87;1.30;;;;;;;6.57;66.77;100338.03;5091355;28;20112;-64
2021/04/07 10:55:05;;;;;;;5.50;1.95;;;;;;;6.31;67.80;100336.06;5091398;28;20071;-64
2021/04/07 10:57:36;;;;;;;6.65;2.05;;;;;;;5.64;69.66;100333.38;5089929;28;20040;-64
2021/04/07 11:00:12;;;;;;;7.32;1.95;;;;;;;5.81;69.86;100339.78;5091419;28;20043;-64
2021/04/07 11:02:46;;;;;;;6.00;1.83;;;;;;;5.83;69.47;100339.59;5090270;28;20044;-64
2021/04/07 11:05:17;;;;;;;1.95;1.70;;;;;;;5.99;68.10;100341.72;5091298;28;20043;-64
2021/04/07 11:07:43;;;;;;;2.45;1.33;;;;;;;5.96;68.75;100347.31;5091005;28;20070;-64
2021/04/07 11:10:10;;;;;;;2.95;1.30;;;;;;;5.91;67.25;100342.41;5091331;28;20071;-64
2021/04/07 11:12:36;;;;;;;6.30;1.70;;;;;;;5.63;68.01;100346.75;5090019;28;20040;-64
2021/04/07 11:15:04;;;;;;;5.50;2.25;;;;;;;5.21;71.71;100347.84;5091242;28;20032;-64
2021/04/07 11:17:29;;;;;;;9.18;1.90;;;;;;;5.12;73.64;100347.84;5090859;28;20131;-64
2021/04/07 11:19:54;;;;;;;6.63;2.60;;;;;;;4.73;77.46;100348.59;5091253;28;20123;-64
2021/04/07 11:22:20;;;;;;;4.87;1.77;;;;;;;5.03;76.39;100344.19;5091068;28;20067;-64
2021/04/07 11:24:45;;;;;;;4.90;2.57;;;;;;;4.99;76.84;100359.53;5091212;28;20072;-64
2021/04/07 11:27:10;;;;;;;4.87;2.07;;;;;;;4.92;79.51;100353.09;5090865;28;20040;-63
2021/04/07 11:29:36;;;;;;;7.47;2.47;;;;;;;4.99;78.28;100348.94;5090790;28;20077;-64
2021/04/07 11:32:03;;;;;;;4.90;2.13;;;;;;;4.78;79.47;100345.53;5075373;28;20036;-64
2021/04/07 11:34:44;;;;;;;6.55;1.92;;;;;;;4.71;80.01;100353.19;5094885;28;20110;-64